Aktuální počasí v Česku a ve světě - METAR

Seznam meteostanic umístěných nejčasteji na letišti v ČR a ve světě

Vyhledat místa podle abecedy:
A B C D E F G H I J K L M N O P Q R S T U V W X Y Z

Filtrovat:

ID stanice:
a/nebo
Název místa (fulltext):
 
Místo (ID)Naposledy načteno 
Šerák (Serak) 03.12.2020 17:00 UTC Zobrazit data
Místo: Šerák
Teplota: -4 °C (pocitová: -17.4 °C)
Vítr: 10 m/s z(e) 200°
Počasí: déšť
Dohlednost: 100 m
Zákl. oblačnosti: 8/8 30 m
Vlhkost: 93%
Svratouch (Svratouch) 03.12.2020 21:00 UTC Zobrazit data
Místo: Svratouch
Teplota: -2 °C (pocitová: -14.5 °C)
Vítr: 10 m/s z(e) 190°
Počasí: déšť
Dohlednost: 1100 m
Zákl. oblačnosti: 7/8 30 m
Vlhkost: 86%
Saipan Island (PGSN) 04.12.2020 07:54 UTC Zobrazit METAR
PGSN 040754Z 09011KT 10SM FEW021 SCT029 BKN043 28/26 A2983 RMK AO2 SLP124 T02830256 $
Salzburg (LOWS) 04.12.2020 07:50 UTC Zobrazit METAR
LOWS 040750Z VRB02KT 9999 FEW100 BKN120 M05/M06 Q0994 NOSIG
Samara (UWWW) Zatím nenačteno  
San Andres Island (SKSP) 04.12.2020 08:00 UTC Zobrazit METAR
SKSP 040800Z 07014KT 9999 FEW015 SCT080 28/23 Q1010 RMK A2984
San Jose (MRPV) 04.12.2020 00:00 UTC Zobrazit METAR
MRPV 040000Z 01003KT 5000 RA BR FEW004 BKN008 19/19 A3001 NOSIG
San Juan (TJSJ) 04.12.2020 07:56 UTC Zobrazit METAR
TJSJ 040756Z 17003KT 10SM FEW037 24/20 A2998 RMK AO2 SLP151 T02440200 $
San Salvador (MSLP) 04.12.2020 07:50 UTC Zobrazit METAR
MSLP 040750Z VRB02KT 9999 FEW065 24/23 Q1011 A2987 NOSIG
Sanaa (OYSN) 08.02.2017 13:00 UTC Zobrazit METAR
OYSN 081300Z 03008KT 9999 FEW030 25/M05 Q1022
Santiago (SCEL) 04.12.2020 07:00 UTC Zobrazit METAR
SCEL 040700Z AUTO VRB01KT 9999 FEW220/// 15/05 Q1013
Santiago (LEST) 03.12.2020 18:00 UTC Zobrazit METAR
LEST 031800Z 26009G19KT 210V300 9999 FEW005 BKN008 BKN040 09/08 Q1004 TEMPO 3000 RA
Santo Domingo (MDHE) 08.04.2012 12:00 UTC  
Santorini (LGSR) 04.12.2020 07:50 UTC Zobrazit METAR
LGSR 040750Z 16014KT 9999 SCT025 18/13 Q1013
Sao Tome (FPST) 23.11.2020 13:00 UTC Zobrazit METAR
FPST 231300Z 14012KT 9999 SCT020 30/25 Q1012 NOSIG
Sarajevo (LQSA) 04.12.2020 08:00 UTC Zobrazit METAR
LQSA 040800Z 06004KT 020V090 9999 FEW030 BKN045 11/06 Q1003 NOSIG
Saratov (UWSS) 06.03.2017 17:00 UTC Zobrazit METAR
UWSS 061700Z CAVOK 04/00 Q1024 R12/190055 NOSIG RMK QFE756
Sarmellek (LHSM) 04.12.2020 07:45 UTC Zobrazit METAR
LHSM 040745Z AUTO 15005KT 120V180 4100 BR BKN004 BKN060 01/01 Q1005 NOSIG
Seinajoki (EFSI) 04.12.2020 07:50 UTC Zobrazit METAR
EFSI 040750Z AUTO 12010KT 9999 SCT017 OVC020 00/M02 Q1014
Seoul/Incheon (RKSI) 04.12.2020 08:00 UTC Zobrazit METAR
RKSI 040800Z 32005KT 9999 SCT040 03/M07 Q1029 NOSIG
Seville (LEZL) 04.12.2020 08:00 UTC Zobrazit METAR
LEZL 040800Z 24012KT 210V270 9999 FEW043 13/10 Q1005 NOSIG
Seychelles (FSIA) 04.12.2020 08:00 UTC Zobrazit METAR
FSIA 040800Z 08004KT 020V120 9999 SCT020 30/25 Q1012 NOSIG
Shymkent (UAII) Zatím nenačteno  
Siauliai (EYSA) 04.12.2020 07:50 UTC Zobrazit METAR
EYSA 040750Z 14018KT 9000 OVC010 01/M01 Q1012 R14L/19//95 R14R/19//95 GRN NOSIG
Sibiu (LRSB) 04.12.2020 08:00 UTC Zobrazit METAR
LRSB 040800Z 14010KT CAVOK 10/01 Q1013 NOSIG
Simferopol' (UKFF) Zatím nenačteno  
Singapore (WSSS) 04.12.2020 05:00 UTC Zobrazit METAR
WSSS 040500Z 34010KT 300V010 9999 FEW018 BKN160 30/25 Q1009 NOSIG
Skopje (LWSK) 04.12.2020 08:00 UTC Zobrazit METAR
LWSK 040800Z 13011KT 9999 BKN040 OVC100 10/06 Q1012 NOSIG
Soderhamn (ESNY) Zatím nenačteno  
Sofia (LBSF) 04.12.2020 08:00 UTC Zobrazit METAR
LBSF 040800Z 11015KT 8000 SCT011 OVC015 02/01 Q1015 NOSIG
Sonderborg (EKSB) 04.12.2020 07:50 UTC Zobrazit METAR
EKSB 040750Z 12020KT 9999 FEW015 SCT045 BKN200 03/00 Q0990
Split (LDSP) 04.12.2020 08:00 UTC Zobrazit METAR
LDSP 040800Z 30003KT 240V340 CAVOK 10/07 Q1004 NOSIG
St. Denis (FMEE) 04.12.2020 08:00 UTC Zobrazit METAR
FMEE 040800Z AUTO 08017KT 9999 BKN031 29/22 Q1015 NOSIG
St. Georges (TGPY) 04.12.2020 07:00 UTC Zobrazit METAR
TGPY 040700Z 08008KT 9999 FEW017 25/22 Q1012 NOSIG
St. Johns (TAPA) 04.12.2020 08:00 UTC Zobrazit METAR
TAPA 040800Z 07006KT 9999 FEW018 24/18 Q1014 NOSIG
St. Petersburg (ULLI) Zatím nenačteno  
St. Pierre Island (LFVP) 04.12.2020 01:00 UTC Zobrazit METAR
LFVP 040100Z VRB02KT 8000 MIFG FEW002 BKN040 06/06 Q1018 NOSIG
Stavanger (ENZV) 04.12.2020 07:50 UTC Zobrazit METAR
ENZV 040750Z 09008KT CAVOK 06/M02 Q0992 NOSIG
Stockholm (ESSA) 04.12.2020 07:50 UTC Zobrazit METAR
ESSA 040750Z 12008KT 9999 FEW009 BKN041 03/02 Q1005 R01R/29//95 R08/29//95 TEMPO BKN009
Strasbourg (LFST) 04.12.2020 08:00 UTC Zobrazit METAR
LFST 040800Z AUTO 15005KT 9999 -RA BKN040 BKN047 BKN056 05/03 Q0989 NOSIG
Stuttgart (EDDS) 04.12.2020 07:50 UTC Zobrazit METAR
EDDS 040750Z VRB03KT 9999 SCT045 01/M02 Q0990 NOSIG
Reklama


Další české internetové stránky (nejen) o počasí najdete v katalogu TOPlist - weby o počasí nebo vyhledejte na internetu, co jste tu na 🌞 Slunečnu ⛅ zatím nenašli:
⭐ Přidat Slunečno.cz do oblíbených | 🏠 Nastavit Slunečno.cz jako HOMEPAGE

⬆️ Posunout stránku nahoru ⬆️
Reklama